sensor_id;sensor_type;location;lat;lon;timestamp;pressure;altitude;pressure_sealevel;temperature;humidity
70248;BME280;57641;51.416;5.506;2023-03-11T00:01:30;100862.75;;;6.66;52.06
70248;BME280;57641;51.416;5.506;2023-03-11T00:03:57;100859.38;;;6.64;51.59
70248;BME280;57641;51.416;5.506;2023-03-11T00:06:24;100856.34;;;6.68;51.88
70248;BME280;57641;51.416;5.506;2023-03-11T00:08:50;100861.91;;;6.65;51.10
70248;BME280;57641;51.416;5.506;2023-03-11T00:11:16;100867.44;;;6.62;50.72
70248;BME280;57641;51.416;5.506;2023-03-11T00:13:42;100869.91;;;6.54;50.34
70248;BME280;57641;51.416;5.506;2023-03-11T00:16:08;100857.22;;;6.58;51.36
70248;BME280;57641;51.416;5.506;2023-03-11T00:18:34;100867.59;;;6.61;51.79
70248;BME280;57641;51.416;5.506;2023-03-11T00:20:59;100865.91;;;6.60;51.29
70248;BME280;57641;51.416;5.506;2023-03-11T00:23:26;100871.13;;;6.50;51.60
70248;BME280;57641;51.416;5.506;2023-03-11T00:25:52;100874.59;;;6.51;51.80
70248;BME280;57641;51.416;5.506;2023-03-11T00:28:17;100876.16;;;6.53;51.58
70248;BME280;57641;51.416;5.506;2023-03-11T00:30:44;100883.00;;;6.56;51.73
70248;BME280;57641;51.416;5.506;2023-03-11T00:33:12;100882.81;;;6.48;51.64
70248;BME280;57641;51.416;5.506;2023-03-11T00:35:38;100876.66;;;6.47;50.78
70248;BME280;57641;51.416;5.506;2023-03-11T00:38:13;100882.91;;;6.46;50.37
70248;BME280;57641;51.416;5.506;2023-03-11T00:40:40;100891.31;;;6.51;50.92
70248;BME280;57641;51.416;5.506;2023-03-11T00:43:05;100891.00;;;6.45;51.76
70248;BME280;57641;51.416;5.506;2023-03-11T00:45:31;100891.97;;;6.44;52.15
70248;BME280;57641;51.416;5.506;2023-03-11T00:47:58;100894.84;;;6.41;51.67
70248;BME280;57641;51.416;5.506;2023-03-11T00:50:27;100893.31;;;6.38;51.21
70248;BME280;57641;51.416;5.506;2023-03-11T00:52:53;100895.34;;;6.34;50.87
70248;BME280;57641;51.416;5.506;2023-03-11T00:55:22;100896.19;;;6.35;51.96
70248;BME280;57641;51.416;5.506;2023-03-11T00:57:57;100895.13;;;6.38;52.59
70248;BME280;57641;51.416;5.506;2023-03-11T01:00:25;100902.13;;;6.27;52.07
70248;BME280;57641;51.416;5.506;2023-03-11T01:02:53;100907.78;;;6.34;52.02
70248;BME280;57641;51.416;5.506;2023-03-11T01:05:21;100911.97;;;6.36;52.67
70248;BME280;57641;51.416;5.506;2023-03-11T01:07:47;100912.81;;;6.37;52.13
70248;BME280;57641;51.416;5.506;2023-03-11T01:10:13;100921.59;;;6.38;52.39
70248;BME280;57641;51.416;5.506;2023-03-11T01:12:39;100923.03;;;6.30;51.60
70248;BME280;57641;51.416;5.506;2023-03-11T01:15:08;100925.59;;;6.32;52.14
70248;BME280;57641;51.416;5.506;2023-03-11T01:17:34;100933.25;;;6.35;52.04
70248;BME280;57641;51.416;5.506;2023-03-11T01:20:00;100941.47;;;6.32;51.74
70248;BME280;57641;51.416;5.506;2023-03-11T01:22:26;100933.53;;;6.32;52.00
70248;BME280;57641;51.416;5.506;2023-03-11T01:24:51;100938.56;;;6.24;51.51
70248;BME280;57641;51.416;5.506;2023-03-11T01:27:17;100941.75;;;6.07;51.64
70248;BME280;57641;51.416;5.506;2023-03-11T01:29:42;100943.06;;;6.23;52.20
70248;BME280;57641;51.416;5.506;2023-03-11T01:32:09;100939.31;;;6.26;51.90
70248;BME280;57641;51.416;5.506;2023-03-11T01:34:35;100940.03;;;6.28;51.87
70248;BME280;57641;51.416;5.506;2023-03-11T01:37:04;100942.22;;;6.23;51.98
70248;BME280;57641;51.416;5.506;2023-03-11T01:39:29;100942.34;;;6.21;52.27
70248;BME280;57641;51.416;5.506;2023-03-11T01:41:55;100939.41;;;6.24;51.33
70248;BME280;57641;51.416;5.506;2023-03-11T01:44:20;100939.66;;;6.32;51.71
70248;BME280;57641;51.416;5.506;2023-03-11T01:49:21;100944.13;;;6.21;52.55
70248;BME280;57641;51.416;5.506;2023-03-11T01:51:50;100939.56;;;6.23;52.54
70248;BME280;57641;51.416;5.506;2023-03-11T01:54:38;100944.25;;;6.19;52.84
70248;BME280;57641;51.416;5.506;2023-03-11T01:57:10;100933.19;;;6.14;52.91
70248;BME280;57641;51.416;5.506;2023-03-11T01:59:39;100937.53;;;6.15;51.95
70248;BME280;57641;51.416;5.506;2023-03-11T02:02:29;100941.13;;;6.14;52.01
70248;BME280;57641;51.416;5.506;2023-03-11T02:04:58;100946.69;;;6.11;52.11
70248;BME280;57641;51.416;5.506;2023-03-11T02:07:27;100950.66;;;6.06;52.86
70248;BME280;57641;51.416;5.506;2023-03-11T02:09:52;100941.38;;;6.11;53.08
70248;BME280;57641;51.416;5.506;2023-03-11T02:12:18;100937.88;;;6.11;52.63
70248;BME280;57641;51.416;5.506;2023-03-11T02:14:47;100943.91;;;6.13;53.76
70248;BME280;57641;51.416;5.506;2023-03-11T02:17:14;100938.38;;;6.05;53.86
70248;BME280;57641;51.416;5.506;2023-03-11T02:20:07;100943.09;;;6.01;54.96
70248;BME280;57641;51.416;5.506;2023-03-11T02:22:40;100949.69;;;5.96;55.60
70248;BME280;57641;51.416;5.506;2023-03-11T02:25:40;100942.47;;;5.98;56.15
70248;BME280;57641;51.416;5.506;2023-03-11T02:28:11;100950.78;;;5.93;56.38
70248;BME280;57641;51.416;5.506;2023-03-11T02:30:39;100947.97;;;5.83;56.56
70248;BME280;57641;51.416;5.506;2023-03-11T02:33:05;100944.50;;;5.83;56.80
70248;BME280;57641;51.416;5.506;2023-03-11T02:35:31;100958.22;;;5.88;56.81
70248;BME280;57641;51.416;5.506;2023-03-11T02:37:56;100944.63;;;5.92;56.57
70248;BME280;57641;51.416;5.506;2023-03-11T02:42:49;100944.50;;;6.05;56.53
70248;BME280;57641;51.416;5.506;2023-03-11T02:45:17;100944.88;;;6.01;55.58
70248;BME280;57641;51.416;5.506;2023-03-11T02:47:45;100947.66;;;5.99;56.30
70248;BME280;57641;51.416;5.506;2023-03-11T02:50:13;100946.78;;;5.99;56.45
70248;BME280;57641;51.416;5.506;2023-03-11T02:52:39;100956.53;;;5.98;56.50
70248;BME280;57641;51.416;5.506;2023-03-11T02:55:05;100951.97;;;6.00;55.81
70248;BME280;57641;51.416;5.506;2023-03-11T02:57:31;100945.72;;;6.01;55.54
70248;BME280;57641;51.416;5.506;2023-03-11T02:59:56;100943.94;;;6.02;55.36
70248;BME280;57641;51.416;5.506;2023-03-11T03:02:24;100945.63;;;6.03;54.92
70248;BME280;57641;51.416;5.506;2023-03-11T03:04:49;100949.69;;;5.96;55.94
70248;BME280;57641;51.416;5.506;2023-03-11T03:07:15;100949.13;;;5.92;55.93
70248;BME280;57641;51.416;5.506;2023-03-11T03:09:40;100949.34;;;5.89;56.01
70248;BME280;57641;51.416;5.506;2023-03-11T03:12:06;100952.19;;;5.86;56.50
70248;BME280;57641;51.416;5.506;2023-03-11T03:14:32;100957.38;;;5.87;56.07
70248;BME280;57641;51.416;5.506;2023-03-11T03:16:58;100956.75;;;5.84;55.92
70248;BME280;57641;51.416;5.506;2023-03-11T03:19:23;100950.88;;;5.80;56.60
70248;BME280;57641;51.416;5.506;2023-03-11T03:21:49;100964.22;;;5.79;56.56
70248;BME280;57641;51.416;5.506;2023-03-11T03:24:14;100971.91;;;5.82;56.88
70248;BME280;57641;51.416;5.506;2023-03-11T03:26:40;100975.88;;;5.76;57.13
70248;BME280;57641;51.416;5.506;2023-03-11T03:29:06;100984.66;;;5.77;56.88
70248;BME280;57641;51.416;5.506;2023-03-11T03:31:31;100980.94;;;5.79;56.74
70248;BME280;57641;51.416;5.506;2023-03-11T03:33:57;100986.44;;;5.76;56.77
70248;BME280;57641;51.416;5.506;2023-03-11T03:36:23;100997.75;;;5.78;56.62
70248;BME280;57641;51.416;5.506;2023-03-11T03:38:53;100997.28;;;5.73;56.63
70248;BME280;57641;51.416;5.506;2023-03-11T03:41:19;100997.38;;;5.72;56.41
70248;BME280;57641;51.416;5.506;2023-03-11T03:43:45;101004.63;;;5.70;56.57
70248;BME280;57641;51.416;5.506;2023-03-11T03:46:10;101007.47;;;5.67;56.08
70248;BME280;57641;51.416;5.506;2023-03-11T03:48:36;101002.94;;;5.69;56.17
70248;BME280;57641;51.416;5.506;2023-03-11T03:51:08;101011.47;;;5.72;56.49
70248;BME280;57641;51.416;5.506;2023-03-11T03:53:35;101006.53;;;5.68;55.78
70248;BME280;57641;51.416;5.506;2023-03-11T03:56:04;101015.41;;;5.67;56.18
70248;BME280;57641;51.416;5.506;2023-03-11T03:58:29;101017.47;;;5.63;55.80
70248;BME280;57641;51.416;5.506;2023-03-11T04:00:56;101016.59;;;5.51;56.18
70248;BME280;57641;51.416;5.506;2023-03-11T04:03:22;101026.31;;;5.51;56.36
70248;BME280;57641;51.416;5.506;2023-03-11T04:05:48;101025.00;;;5.45;56.12
70248;BME280;57641;51.416;5.506;2023-03-11T04:08:14;101020.78;;;5.43;56.45
70248;BME280;57641;51.416;5.506;2023-03-11T04:10:39;101023.44;;;5.43;57.06
70248;BME280;57641;51.416;5.506;2023-03-11T04:13:05;101017.91;;;5.46;56.54
70248;BME280;57641;51.416;5.506;2023-03-11T04:15:30;101017.78;;;5.47;56.62
70248;BME280;57641;51.416;5.506;2023-03-11T04:17:56;101020.09;;;5.52;56.28
70248;BME280;57641;51.416;5.506;2023-03-11T04:20:21;101026.22;;;5.52;56.44
70248;BME280;57641;51.416;5.506;2023-03-11T04:22:47;101026.31;;;5.51;56.15
70248;BME280;57641;51.416;5.506;2023-03-11T04:25:12;101026.47;;;5.49;56.60
70248;BME280;57641;51.416;5.506;2023-03-11T04:27:38;101037.03;;;5.49;56.46
70248;BME280;57641;51.416;5.506;2023-03-11T04:30:08;101029.81;;;5.51;56.46
70248;BME280;57641;51.416;5.506;2023-03-11T04:32:33;101028.00;;;5.52;56.06
70248;BME280;57641;51.416;5.506;2023-03-11T04:34:59;101034.16;;;5.52;56.51
70248;BME280;57641;51.416;5.506;2023-03-11T04:37:28;101032.75;;;5.60;56.40
70248;BME280;57641;51.416;5.506;2023-03-11T04:39:53;101031.50;;;5.52;56.57
70248;BME280;57641;51.416;5.506;2023-03-11T04:42:19;101029.72;;;5.53;56.12
70248;BME280;57641;51.416;5.506;2023-03-11T04:44:44;101027.91;;;5.53;56.53
70248;BME280;57641;51.416;5.506;2023-03-11T04:47:10;101035.94;;;5.52;56.25
70248;BME280;57641;51.416;5.506;2023-03-11T04:49:36;101031.75;;;5.49;56.46
70248;BME280;57641;51.416;5.506;2023-03-11T04:52:01;101032.06;;;5.45;56.45
70248;BME280;57641;51.416;5.506;2023-03-11T04:54:27;101027.88;;;5.42;56.29
70248;BME280;57641;51.416;5.506;2023-03-11T04:56:52;101035.81;;;5.42;56.89
70248;BME280;57641;51.416;5.506;2023-03-11T04:59:18;101034.13;;;5.41;56.62
70248;BME280;57641;51.416;5.506;2023-03-11T05:01:43;101036.16;;;5.38;56.30
70248;BME280;57641;51.416;5.506;2023-03-11T05:04:09;101036.16;;;5.38;56.12
70248;BME280;57641;51.416;5.506;2023-03-11T05:06:36;101039.47;;;5.29;56.54
70248;BME280;57641;51.416;5.506;2023-03-11T05:09:01;101040.66;;;5.25;56.75
70248;BME280;57641;51.416;5.506;2023-03-11T05:11:27;101043.44;;;5.23;56.57
70248;BME280;57641;51.416;5.506;2023-03-11T05:13:52;101045.00;;;5.26;56.88
70248;BME280;57641;51.416;5.506;2023-03-11T05:16:18;101049.44;;;5.25;57.09
70248;BME280;57641;51.416;5.506;2023-03-11T05:18:43;101045.00;;;5.26;56.42
70248;BME280;57641;51.416;5.506;2023-03-11T05:21:09;101057.47;;;5.24;56.68
70248;BME280;57641;51.416;5.506;2023-03-11T05:23:35;101059.47;;;5.09;56.07
70248;BME280;57641;51.416;5.506;2023-03-11T05:26:00;101049.84;;;5.08;56.50
70248;BME280;57641;51.416;5.506;2023-03-11T05:28:26;101064.59;;;4.99;57.34
70248;BME280;57641;51.416;5.506;2023-03-11T05:30:51;101063.03;;;4.97;57.34
70248;BME280;57641;51.416;5.506;2023-03-11T05:33:17;101068.31;;;4.97;56.67
70248;BME280;57641;51.416;5.506;2023-03-11T05:35:42;101069.03;;;4.99;57.13
70248;BME280;57641;51.416;5.506;2023-03-11T05:38:08;101073.25;;;5.01;57.22
70248;BME280;57641;51.416;5.506;2023-03-11T05:40:33;101076.94;;;4.99;56.86
70248;BME280;57641;51.416;5.506;2023-03-11T05:42:59;101081.88;;;5.03;57.16
70248;BME280;57641;51.416;5.506;2023-03-11T05:45:24;101084.31;;;5.06;56.67
70248;BME280;57641;51.416;5.506;2023-03-11T05:47:53;101080.94;;;5.04;56.60
70248;BME280;57641;51.416;5.506;2023-03-11T05:50:18;101078.97;;;4.95;56.25
70248;BME280;57641;51.416;5.506;2023-03-11T05:52:44;101079.31;;;4.91;56.64
70248;BME280;57641;51.416;5.506;2023-03-11T05:55:09;101078.91;;;4.84;56.67
70248;BME280;57641;51.416;5.506;2023-03-11T05:57:37;101080.59;;;4.85;57.06
70248;BME280;57641;51.416;5.506;2023-03-11T06:00:07;101084.28;;;4.83;57.09
70248;BME280;57641;51.416;5.506;2023-03-11T06:02:40;101082.00;;;4.78;56.97
70248;BME280;57641;51.416;5.506;2023-03-11T06:05:07;101095.09;;;4.80;57.20
70248;BME280;57641;51.416;5.506;2023-03-11T06:07:34;101087.38;;;4.77;56.54
70248;BME280;57641;51.416;5.506;2023-03-11T06:10:00;101091.00;;;4.76;56.83
70248;BME280;57641;51.416;5.506;2023-03-11T06:12:25;101087.50;;;4.75;56.82
70248;BME280;57641;51.416;5.506;2023-03-11T06:14:52;101096.72;;;4.70;56.70
70248;BME280;57641;51.416;5.506;2023-03-11T06:17:18;101098.59;;;4.67;57.10
70248;BME280;57641;51.416;5.506;2023-03-11T06:19:44;101109.50;;;4.63;57.47
70248;BME280;57641;51.416;5.506;2023-03-11T06:22:09;101111.72;;;4.69;57.48
70248;BME280;57641;51.416;5.506;2023-03-11T06:24:35;101112.88;;;4.65;56.59
70248;BME280;57641;51.416;5.506;2023-03-11T06:27:01;101113.09;;;4.62;56.93
70248;BME280;57641;51.416;5.506;2023-03-11T06:29:27;101121.09;;;4.60;57.69
70248;BME280;57641;51.416;5.506;2023-03-11T06:31:53;101120.50;;;4.57;57.76
70248;BME280;57641;51.416;5.506;2023-03-11T06:34:19;101126.38;;;4.60;57.68
70248;BME280;57641;51.416;5.506;2023-03-11T06:36:45;101129.69;;;4.64;57.37
70248;BME280;57641;51.416;5.506;2023-03-11T06:39:13;101127.88;;;4.64;57.22
70248;BME280;57641;51.416;5.506;2023-03-11T06:41:40;101135.81;;;4.64;57.36
70248;BME280;57641;51.416;5.506;2023-03-11T06:44:06;101145.72;;;4.61;57.08
70248;BME280;57641;51.416;5.506;2023-03-11T06:46:31;101152.41;;;4.54;57.33
70248;BME280;57641;51.416;5.506;2023-03-11T06:48:57;101159.81;;;4.49;58.08
70248;BME280;57641;51.416;5.506;2023-03-11T06:51:22;101161.28;;;4.53;57.70
70248;BME280;57641;51.416;5.506;2023-03-11T06:53:49;101160.94;;;4.57;57.62
70248;BME280;57641;51.416;5.506;2023-03-11T06:56:16;101155.34;;;4.62;57.12
70248;BME280;57641;51.416;5.506;2023-03-11T06:58:41;101162.00;;;4.67;56.83
70248;BME280;57641;51.416;5.506;2023-03-11T07:01:09;101172.97;;;4.74;57.44
70248;BME280;57641;51.416;5.506;2023-03-11T07:03:36;101174.53;;;4.77;57.33
70248;BME280;57641;51.416;5.506;2023-03-11T07:06:02;101183.22;;;4.79;57.70
70248;BME280;57641;51.416;5.506;2023-03-11T07:08:28;101191.13;;;4.79;57.58
70248;BME280;57641;51.416;5.506;2023-03-11T07:11:22;101188.69;;;4.88;57.80
70248;BME280;57641;51.416;5.506;2023-03-11T07:13:48;101198.72;;;4.96;58.16
70248;BME280;57641;51.416;5.506;2023-03-11T07:16:16;101194.66;;;5.03;57.62
70248;BME280;57641;51.416;5.506;2023-03-11T07:18:46;101192.53;;;5.08;57.42
70248;BME280;57641;51.416;5.506;2023-03-11T07:21:15;101191.78;;;5.19;57.59
70248;BME280;57641;51.416;5.506;2023-03-11T07:23:41;101201.69;;;5.28;57.35
70248;BME280;57641;51.416;5.506;2023-03-11T07:26:12;101196.06;;;5.32;56.61
70248;BME280;57641;51.416;5.506;2023-03-11T07:28:39;101200.06;;;5.38;57.36
70248;BME280;57641;51.416;5.506;2023-03-11T07:31:09;101194.34;;;5.44;56.63
70248;BME280;57641;51.416;5.506;2023-03-11T07:33:35;101200.16;;;5.49;57.23
70248;BME280;57641;51.416;5.506;2023-03-11T07:36:12;101202.34;;;5.55;57.08
70248;BME280;57641;51.416;5.506;2023-03-11T07:38:40;101203.91;;;5.58;57.00
70248;BME280;57641;51.416;5.506;2023-03-11T07:41:07;101202.50;;;5.65;56.77
70248;BME280;57641;51.416;5.506;2023-03-11T07:43:33;101210.00;;;5.71;56.20
70248;BME280;57641;51.416;5.506;2023-03-11T07:46:13;101204.72;;;5.82;56.30
70248;BME280;57641;51.416;5.506;2023-03-11T07:48:41;101213.41;;;5.84;56.68
70248;BME280;57641;51.416;5.506;2023-03-11T07:53:34;101216.97;;;5.96;56.10
70248;BME280;57641;51.416;5.506;2023-03-11T07:56:01;101221.81;;;6.02;55.85
70248;BME280;57641;51.416;5.506;2023-03-11T07:58:27;101225.91;;;6.06;55.07
70248;BME280;57641;51.416;5.506;2023-03-11T08:00:53;101222.56;;;6.15;54.75
70248;BME280;57641;51.416;5.506;2023-03-11T08:03:22;101232.25;;;6.27;53.72
70248;BME280;57641;51.416;5.506;2023-03-11T08:05:49;101235.00;;;6.25;52.59
70248;BME280;57641;51.416;5.506;2023-03-11T08:08:14;101228.53;;;6.41;52.86
70248;BME280;57641;51.416;5.506;2023-03-11T08:10:40;101235.16;;;6.46;52.79
70248;BME280;57641;51.416;5.506;2023-03-11T08:13:05;101235.91;;;6.59;53.14
70248;BME280;57641;51.416;5.506;2023-03-11T08:15:31;101242.19;;;6.58;52.47
70248;BME280;57641;51.416;5.506;2023-03-11T08:17:56;101243.03;;;6.70;51.72
70248;BME280;57641;51.416;5.506;2023-03-11T08:20:22;101235.19;;;6.68;50.58
70248;BME280;57641;51.416;5.506;2023-03-11T08:22:47;101237.50;;;6.84;50.85
70248;BME280;57641;51.416;5.506;2023-03-11T08:25:13;101238.94;;;6.99;50.06
70248;BME280;57641;51.416;5.506;2023-03-11T08:27:38;101241.00;;;7.07;50.24
70248;BME280;57641;51.416;5.506;2023-03-11T08:30:05;101233.16;;;7.05;48.25
70248;BME280;57641;51.416;5.506;2023-03-11T08:32:31;101239.78;;;7.22;49.11
70248;BME280;57641;51.416;5.506;2023-03-11T08:34:58;101239.41;;;7.27;47.80
70248;BME280;57641;51.416;5.506;2023-03-11T08:37:24;101244.84;;;7.25;47.39
70248;BME280;57641;51.416;5.506;2023-03-11T08:39:49;101250.13;;;7.36;46.86
70248;BME280;57641;51.416;5.506;2023-03-11T08:42:16;101247.56;;;7.46;46.58
70248;BME280;57641;51.416;5.506;2023-03-11T08:44:42;101254.22;;;7.40;45.69
70248;BME280;57641;51.416;5.506;2023-03-11T08:47:08;101254.19;;;7.51;45.71
70248;BME280;57641;51.416;5.506;2023-03-11T08:49:34;101253.97;;;7.54;43.97
70248;BME280;57641;51.416;5.506;2023-03-11T08:52:00;101258.28;;;7.67;44.99
70248;BME280;57641;51.416;5.506;2023-03-11T08:54:26;101255.38;;;7.70;44.20
70248;BME280;57641;51.416;5.506;2023-03-11T08:56:51;101256.69;;;7.75;43.05
70248;BME280;57641;51.416;5.506;2023-03-11T08:59:17;101271.00;;;7.84;43.85
70248;BME280;57641;51.416;5.506;2023-03-11T09:01:42;101277.16;;;7.84;43.60
70248;BME280;57641;51.416;5.506;2023-03-11T09:04:08;101269.44;;;7.92;43.16
70248;BME280;57641;51.416;5.506;2023-03-11T09:06:34;101275.78;;;8.01;42.80
70248;BME280;57641;51.416;5.506;2023-03-11T09:08:59;101274.81;;;8.02;42.21
70248;BME280;57641;51.416;5.506;2023-03-11T09:11:25;101274.09;;;8.00;42.01
70248;BME280;57641;51.416;5.506;2023-03-11T09:13:50;101269.84;;;8.09;42.59
70248;BME280;57641;51.416;5.506;2023-03-11T09:16:21;101267.28;;;8.18;42.18
70248;BME280;57641;51.416;5.506;2023-03-11T09:18:47;101271.81;;;8.27;41.51
70248;BME280;57641;51.416;5.506;2023-03-11T09:21:13;101274.09;;;8.32;39.80
70248;BME280;57641;51.416;5.506;2023-03-11T09:23:38;101276.25;;;8.38;39.55
70248;BME280;57641;51.416;5.506;2023-03-11T09:26:04;101279.75;;;8.38;39.24
70248;BME280;57641;51.416;5.506;2023-03-11T09:28:29;101285.03;;;8.50;40.89
70248;BME280;57641;51.416;5.506;2023-03-11T09:30:55;101274.19;;;8.41;38.87
70248;BME280;57641;51.416;5.506;2023-03-11T09:33:21;101291.88;;;8.52;39.37
70248;BME280;57641;51.416;5.506;2023-03-11T09:35:50;101300.19;;;8.59;38.15
70248;BME280;57641;51.416;5.506;2023-03-11T09:38:15;101302.59;;;8.62;38.82
70248;BME280;57641;51.416;5.506;2023-03-11T09:41:01;101301.88;;;8.80;39.48
70248;BME280;57641;51.416;5.506;2023-03-11T09:57:50;101293.22;;;9.09;37.47
70248;BME280;57641;51.416;5.506;2023-03-11T10:00:19;101293.00;;;9.31;37.56
70248;BME280;57641;51.416;5.506;2023-03-11T10:02:48;101296.16;;;9.15;35.46
70248;BME280;57641;51.416;5.506;2023-03-11T10:05:25;101298.16;;;9.23;36.46
70248;BME280;57641;51.416;5.506;2023-03-11T10:08:18;101300.59;;;9.36;36.65
70248;BME280;57641;51.416;5.506;2023-03-11T10:11:26;101291.34;;;9.30;39.43
70248;BME280;57641;51.416;5.506;2023-03-11T10:13:53;101290.13;;;9.44;35.83
70248;BME280;57641;51.416;5.506;2023-03-11T10:16:41;101291.69;;;9.46;35.63
70248;BME280;57641;51.416;5.506;2023-03-11T10:19:29;101287.31;;;9.36;36.89
70248;BME280;57641;51.416;5.506;2023-03-11T10:22:23;101293.56;;;9.25;35.82
70248;BME280;57641;51.416;5.506;2023-03-11T10:24:56;101302.69;;;9.32;36.69
70248;BME280;57641;51.416;5.506;2023-03-11T10:27:44;101303.28;;;9.36;34.71
70248;BME280;57641;51.416;5.506;2023-03-11T10:30:28;101307.75;;;9.35;34.09
70248;BME280;57641;51.416;5.506;2023-03-11T10:33:00;101309.97;;;9.30;35.90
70248;BME280;57641;51.416;5.506;2023-03-11T10:36:02;101314.19;;;9.42;35.44
70248;BME280;57641;51.416;5.506;2023-03-11T10:38:43;101310.94;;;9.29;35.37
70248;BME280;57641;51.416;5.506;2023-03-11T10:41:42;101327.25;;;9.45;35.07
70248;BME280;57641;51.416;5.506;2023-03-11T10:44:24;101319.88;;;9.28;33.91
70248;BME280;57641;51.416;5.506;2023-03-11T10:46:52;101322.06;;;9.44;34.61
70248;BME280;57641;51.416;5.506;2023-03-11T10:49:18;101327.84;;;9.58;35.69
70248;BME280;57641;51.416;5.506;2023-03-11T10:51:48;101318.13;;;9.78;35.17
70248;BME280;57641;51.416;5.506;2023-03-11T10:57:00;101316.00;;;9.82;34.38
70248;BME280;57641;51.416;5.506;2023-03-11T10:59:30;101316.16;;;9.90;35.20
70248;BME280;57641;51.416;5.506;2023-03-11T11:02:02;101313.78;;;10.15;35.29
70248;BME280;57641;51.416;5.506;2023-03-11T11:04:37;101306.72;;;10.26;33.20
70248;BME280;57641;51.416;5.506;2023-03-11T11:07:29;101309.88;;;10.10;34.37
70248;BME280;57641;51.416;5.506;2023-03-11T11:12:40;101309.09;;;10.19;33.38
70248;BME280;57641;51.416;5.506;2023-03-11T11:15:31;101319.44;;;10.22;34.44
70248;BME280;57641;51.416;5.506;2023-03-11T11:18:13;101312.03;;;10.26;33.41
70248;BME280;57641;51.416;5.506;2023-03-11T11:21:05;101310.34;;;10.25;32.39
70248;BME280;57641;51.416;5.506;2023-03-11T11:23:37;101312.31;;;10.23;32.23
70248;BME280;57641;51.416;5.506;2023-03-11T11:26:19;101307.25;;;10.29;34.21
70248;BME280;57641;51.416;5.506;2023-03-11T11:28:46;101311.59;;;10.40;35.76
70248;BME280;57641;51.416;5.506;2023-03-11T11:31:29;101302.31;;;10.63;34.23
70248;BME280;57641;51.416;5.506;2023-03-11T11:33:55;101315.38;;;10.66;34.71
70248;BME280;57641;51.416;5.506;2023-03-11T11:36:24;101311.72;;;10.67;36.44
70248;BME280;57641;51.416;5.506;2023-03-11T11:38:52;101303.16;;;10.64;33.33
70248;BME280;57641;51.416;5.506;2023-03-11T11:41:25;101303.69;;;10.86;34.16
70248;BME280;57641;51.416;5.506;2023-03-11T11:43:58;101304.69;;;10.76;32.25
70248;BME280;57641;51.416;5.506;2023-03-11T11:49:30;101303.13;;;10.83;34.05
70248;BME280;57641;51.416;5.506;2023-03-11T11:52:17;101300.59;;;10.81;33.17
70248;BME280;57641;51.416;5.506;2023-03-11T11:54:52;101306.47;;;10.85;32.76
70248;BME280;57641;51.416;5.506;2023-03-11T11:57:21;101301.00;;;10.86;32.23
70248;BME280;57641;51.416;5.506;2023-03-11T11:59:47;101300.88;;;10.88;33.07
70248;BME280;57641;51.416;5.506;2023-03-11T12:06:01;101297.63;;;10.94;31.94
70248;BME280;57641;51.416;5.506;2023-03-11T12:08:26;101302.56;;;10.89;32.02
70248;BME280;57641;51.416;5.506;2023-03-11T12:11:37;101291.72;;;10.90;31.18
70248;BME280;57641;51.416;5.506;2023-03-11T12:19:19;101297.16;;;11.08;34.63
70248;BME280;57641;51.416;5.506;2023-03-11T12:29:51;101297.81;;;10.64;31.92
70248;BME280;57641;51.416;5.506;2023-03-11T12:32:33;101299.22;;;10.77;32.42
70248;BME280;57641;51.416;5.506;2023-03-11T12:35:08;101301.16;;;10.85;32.53
70248;BME280;57641;51.416;5.506;2023-03-11T12:37:39;101295.66;;;10.96;30.88
70248;BME280;57641;51.416;5.506;2023-03-11T12:43:25;101290.72;;;11.01;31.27
70248;BME280;57641;51.416;5.506;2023-03-11T12:45:57;101291.53;;;11.11;31.98
70248;BME280;57641;51.416;5.506;2023-03-11T12:48:34;101299.25;;;11.14;31.29
70248;BME280;57641;51.416;5.506;2023-03-11T12:51:01;101292.00;;;11.34;31.34
70248;BME280;57641;51.416;5.506;2023-03-11T12:53:46;101287.69;;;11.23;30.97
70248;BME280;57641;51.416;5.506;2023-03-11T12:56:44;101276.53;;;11.00;33.02
70248;BME280;57641;51.416;5.506;2023-03-11T13:04:50;101287.78;;;10.94;33.10
70248;BME280;57641;51.416;5.506;2023-03-11T13:07:47;101276.09;;;11.15;33.67
70248;BME280;57641;51.416;5.506;2023-03-11T13:12:54;101260.69;;;10.99;32.68
70248;BME280;57641;51.416;5.506;2023-03-11T13:18:01;101262.88;;;11.13;33.00
70248;BME280;57641;51.416;5.506;2023-03-11T13:30:41;101269.03;;;11.51;33.09
70248;BME280;57641;51.416;5.506;2023-03-11T13:33:14;101266.41;;;11.41;33.11
70248;BME280;57641;51.416;5.506;2023-03-11T13:41:44;101255.16;;;11.37;32.78
70248;BME280;57641;51.416;5.506;2023-03-11T13:46:47;101265.91;;;11.28;31.38
70248;BME280;57641;51.416;5.506;2023-03-11T13:51:56;101276.41;;;11.02;30.49
70248;BME280;57641;51.416;5.506;2023-03-11T13:54:42;101270.13;;;10.93;30.88
70248;BME280;57641;51.416;5.506;2023-03-11T13:57:26;101261.78;;;11.06;31.49
70248;BME280;57641;51.416;5.506;2023-03-11T13:59:55;101268.34;;;11.12;31.72
70248;BME280;57641;51.416;5.506;2023-03-11T14:02:27;101263.81;;;11.22;31.34
70248;BME280;57641;51.416;5.506;2023-03-11T14:05:01;101268.47;;;11.20;31.94
70248;BME280;57641;51.416;5.506;2023-03-11T14:07:30;101266.66;;;11.20;30.01
70248;BME280;57641;51.416;5.506;2023-03-11T14:12:37;101262.09;;;11.30;32.03
70248;BME280;57641;51.416;5.506;2023-03-11T14:15:14;101272.22;;;11.27;31.73
70248;BME280;57641;51.416;5.506;2023-03-11T14:17:41;101277.56;;;11.27;31.21
70248;BME280;57641;51.416;5.506;2023-03-11T14:20:15;101281.97;;;11.18;30.67
70248;BME280;57641;51.416;5.506;2023-03-11T14:22:47;101274.03;;;10.99;30.29
70248;BME280;57641;51.416;5.506;2023-03-11T14:25:25;101278.34;;;11.00;31.48
70248;BME280;57641;51.416;5.506;2023-03-11T14:27:57;101282.53;;;11.12;30.28
70248;BME280;57641;51.416;5.506;2023-03-11T14:30:27;101283.59;;;11.29;30.90
70248;BME280;57641;51.416;5.506;2023-03-11T14:33:00;101283.84;;;11.35;30.36
70248;BME280;57641;51.416;5.506;2023-03-11T14:35:27;101283.09;;;11.43;29.65